Record high temperature 37.4°C Record low temperature -14.6°C Record high gust 68.5 km/h Record high average 47.2 km/h Record daily rain 55.3 mm Record low windchill -17.5°C Record high barometer 1045.0 hPa Record low barometer 972.0 hPa
Daily high pressure 1019.0 hPa Daily low pressure 1015.0 hPa Daily low windchill 13.4°C Daily high heat index 25.0°C Daily high gust speed 31.6 kmh SSE Daily high average speed 19.8 kmh SSW

This page is updated from recent data collected by a WMR200 weather station Use the Reload or Refresh facility on your browser to retrieve the latest data.

Status report of weather station: Bienvenue sur la Station Météo de Godarville



Weather report/warning/Metars

Alexandroupoli Airport , Greece (LGAL) 40-51N 025-55E 3M
Aug 17, 2017 - 12:20 PM EDT / 2017.08.17 1620 UTC
Wind: from the NE (040 degrees) at 16 MPH (14 KT):0
Visibility: greater than 7 mile(s):0
Sky conditions: mostly clear
Temperature: 91 F (33 C)
Dew Point: 46 F (8 C)
Relative Humidity: 21%
Pressure (altimeter): 29.83 in. Hg (1010 hPa)
ob: LGAL 171620Z 04014KT 9999 FEW030 33/08 Q1010
cycle: 16

Charleroi / Gosselies, Belgium (EBCI) 50-28N 004-27E 192M
Aug 17, 2017 - 12:20 PM EDT / 2017.08.17 1620 UTC
Wind: from the S (190 degrees) at 12 MPH (10 KT):0
Visibility: greater than 7 mile(s):0
Sky conditions: mostly cloudy
Weather: light rain showers
Temperature: 66 F (19 C)
Dew Point: 62 F (17 C)
Relative Humidity: 88%
Pressure (altimeter): 30.00 in. Hg (1016 hPa)
ob: EBCI 171620Z 19010KT 9999 -SHRA SCT008 BKN010 BKN018 19/17 Q1016 BECMG SCT010
cycle: 16

Bruxelles National, Belgium (EBBR) 50-54N 004-32E 58M
Aug 17, 2017 - 12:20 PM EDT / 2017.08.17 1620 UTC
Wind: from the S (190 degrees) at 8 MPH (7 KT):0
Visibility: 2 mile(s):0
Sky conditions: mostly cloudy
Weather: rain showers
Temperature: 68 F (20 C)
Dew Point: 64 F (18 C)
Relative Humidity: 88%
Pressure (altimeter): 29.97 in. Hg (1015 hPa)
ob: EBBR 171620Z 19007KT 4500 SHRA SCT013 BKN027 20/18 Q1015 NOSIG
cycle: 16

Koksijde, Belgium (EBFN) 51-05N 002-39E 9M
Aug 17, 2017 - 12:25 PM EDT / 2017.08.17 1625 UTC
Wind: from the WSW (240 degrees) at 17 MPH (15 KT):0
Visibility: greater than 7 mile(s):0
Temperature: 69 F (21 C)
Dew Point: 57 F (14 C)
Relative Humidity: 64%
Pressure (altimeter): 29.91 in. Hg (1013 hPa)
ob: EBFN 171625Z AUTO 24015KT 9999 NCD 21/14 Q1013 BLU
cycle: 16

Poznan, Poland (EPPO) 52-25N 016-50E 92M
Aug 17, 2017 - 12:30 PM EDT / 2017.08.17 1630 UTC
Wind: from the SE (140 degrees) at 6 MPH (5 KT):0
Visibility: greater than 7 mile(s):0
Temperature: 71 F (22 C)
Dew Point: 60 F (16 C)
Relative Humidity: 68%
Pressure (altimeter): 30.06 in. Hg (1018 hPa)
ob: EPPO 171630Z 14005KT CAVOK 22/16 Q1018 
cycle: 16



Coucher du Soleil:
21:00:20

Lever de Lune:
01:53:34 17/08/17

Coucher de Lune:
16:21:58 16/08/17

Premier Quartier 30 juillet 2017
Pleine Lune 7 août 2017
Dernier Quartier 15 août 2017
Nouvelle Lune 21 août 2017
Âge de lune : 24 jours,4 heures,32 minutes,29%
Les heures du jour possible étaient aujourd’hui 14:28



Use the RELOAD facility on your browser to retrieve the latest data.

Click here for a daily update of the averages/extremes to date for the month
Created by "Weather Display" software version 10.37P at this start time/date 15:28:57 15/08/2017